createdAt,value
2023-08-12T00:01:54.265Z,21.30
2023-08-12T00:04:20.787Z,21.30
2023-08-12T00:06:49.244Z,21.30
2023-08-12T00:09:15.764Z,21.30
2023-08-12T00:11:42.284Z,21.30
2023-08-12T00:14:08.810Z,21.30
2023-08-12T00:16:35.345Z,21.30
2023-08-12T00:19:01.879Z,21.30
2023-08-12T00:21:28.409Z,21.30
2023-08-12T00:23:54.930Z,21.30
2023-08-12T00:26:21.451Z,21.30
2023-08-12T00:28:47.966Z,21.30
2023-08-12T00:31:14.529Z,21.30
2023-08-12T00:33:41.083Z,21.30
2023-08-12T00:36:07.633Z,21.30
2023-08-12T00:38:34.166Z,21.30
2023-08-12T00:41:00.687Z,21.30
2023-08-12T00:43:27.249Z,21.30
2023-08-12T00:45:53.782Z,21.30
2023-08-12T00:48:20.333Z,21.30
2023-08-12T00:50:46.866Z,21.30
2023-08-12T00:53:19.268Z,21.30
2023-08-12T00:55:45.938Z,21.30
2023-08-12T00:58:12.446Z,21.30
2023-08-12T01:00:39.038Z,21.30
2023-08-12T01:03:05.677Z,21.30
2023-08-12T01:05:32.251Z,21.30
2023-08-12T01:07:58.774Z,21.30
2023-08-12T01:10:25.291Z,21.30
2023-08-12T01:12:51.801Z,21.30
2023-08-12T01:15:18.324Z,21.30
2023-08-12T01:17:44.916Z,21.30
2023-08-12T01:20:11.492Z,21.30
2023-08-12T01:22:38.017Z,21.30
2023-08-12T01:25:04.559Z,21.30
2023-08-12T01:27:31.078Z,21.30
2023-08-12T01:29:57.594Z,21.30
2023-08-12T01:32:24.114Z,21.30
2023-08-12T01:34:50.661Z,21.30
2023-08-12T01:37:17.183Z,21.30
2023-08-12T01:39:43.722Z,21.30
2023-08-12T01:42:10.237Z,21.30
2023-08-12T01:44:36.795Z,21.30
2023-08-12T01:47:03.294Z,21.30
2023-08-12T01:49:30.388Z,21.30
2023-08-12T01:51:56.882Z,21.30
2023-08-12T01:54:23.404Z,21.30
2023-08-12T01:56:49.916Z,21.30
2023-08-12T01:59:16.424Z,21.20
2023-08-12T02:01:42.973Z,21.30
2023-08-12T02:04:09.538Z,21.20
2023-08-12T02:06:36.073Z,21.30
2023-08-12T02:09:02.594Z,21.20
2023-08-12T02:11:29.124Z,21.30
2023-08-12T02:13:55.627Z,21.30
2023-08-12T02:16:22.160Z,21.20
2023-08-12T02:18:48.715Z,21.20
2023-08-12T02:21:15.245Z,21.20
2023-08-12T02:23:43.382Z,21.20
2023-08-12T02:26:09.914Z,21.20
2023-08-12T02:28:36.432Z,21.30
2023-08-12T02:31:02.972Z,21.30
2023-08-12T02:33:29.489Z,21.20
2023-08-12T02:35:56.053Z,21.20
2023-08-12T02:38:22.573Z,21.30
2023-08-12T02:40:49.123Z,21.20
2023-08-12T02:43:15.644Z,21.20
2023-08-12T02:45:42.208Z,21.20
2023-08-12T02:48:08.737Z,21.20
2023-08-12T02:50:37.393Z,21.20
2023-08-12T02:53:07.499Z,21.20
2023-08-12T02:55:34.016Z,21.20
2023-08-12T02:58:00.566Z,21.20
2023-08-12T03:00:27.175Z,21.20
2023-08-12T03:02:53.871Z,21.20
2023-08-12T03:05:20.488Z,21.20
2023-08-12T03:07:47.006Z,21.20
2023-08-12T03:10:13.523Z,21.20
2023-08-12T03:12:40.042Z,21.20
2023-08-12T03:15:06.565Z,21.20
2023-08-12T03:17:33.123Z,21.30
2023-08-12T03:19:59.663Z,21.20
2023-08-12T03:22:26.189Z,21.20
2023-08-12T03:24:52.698Z,21.20
2023-08-12T03:27:19.212Z,21.20
2023-08-12T03:29:45.753Z,21.20
2023-08-12T03:32:12.289Z,21.20
2023-08-12T03:34:38.811Z,21.20
2023-08-12T03:37:05.354Z,21.20
2023-08-12T03:39:31.868Z,21.20
2023-08-12T03:41:58.392Z,21.20
2023-08-12T03:44:24.924Z,21.20
2023-08-12T03:46:51.536Z,21.20
2023-08-12T03:49:20.149Z,21.20
2023-08-12T03:51:48.035Z,21.20
2023-08-12T03:54:14.565Z,21.20
2023-08-12T03:56:41.084Z,21.20
2023-08-12T03:59:07.596Z,21.20
2023-08-12T04:01:34.128Z,21.20
2023-08-12T04:04:00.646Z,21.20
2023-08-12T04:06:27.177Z,21.20
2023-08-12T04:08:53.700Z,21.20
2023-08-12T04:11:20.219Z,21.20
2023-08-12T04:13:46.751Z,21.20
2023-08-12T04:16:13.269Z,21.20
2023-08-12T04:18:39.816Z,21.20
2023-08-12T04:21:06.339Z,21.20
2023-08-12T04:23:32.862Z,21.20
2023-08-12T04:25:59.371Z,21.20
2023-08-12T04:28:25.866Z,21.20
2023-08-12T04:30:52.397Z,21.20
2023-08-12T04:33:18.987Z,21.20
2023-08-12T04:35:49.481Z,21.20
2023-08-12T04:38:16.017Z,21.20
2023-08-12T04:40:42.588Z,21.20
2023-08-12T04:43:09.149Z,21.20
2023-08-12T04:45:35.680Z,21.20
2023-08-12T04:48:02.281Z,21.20
2023-08-12T04:50:28.841Z,21.30
2023-08-12T04:52:55.368Z,21.20
2023-08-12T04:55:21.860Z,21.20
2023-08-12T04:57:48.374Z,21.20
2023-08-12T05:00:14.875Z,21.20
2023-08-12T05:02:41.425Z,21.20
2023-08-12T05:05:08.103Z,21.20
2023-08-12T05:07:34.681Z,21.30
2023-08-12T05:10:01.181Z,21.20
2023-08-12T05:12:27.687Z,21.20
2023-08-12T05:14:54.198Z,21.20
2023-08-12T05:17:20.737Z,21.20
2023-08-12T05:19:49.469Z,21.20
2023-08-12T05:22:19.516Z,21.20
2023-08-12T05:24:46.064Z,21.20
2023-08-12T05:27:12.622Z,21.20
2023-08-12T05:29:43.499Z,21.20
2023-08-12T05:32:10.309Z,21.20
2023-08-12T05:34:37.259Z,21.20
2023-08-12T05:37:03.785Z,21.20
2023-08-12T05:39:30.303Z,21.20
2023-08-12T05:41:56.827Z,21.20
2023-08-12T05:44:23.362Z,21.20
2023-08-12T05:46:49.896Z,21.20
2023-08-12T05:49:16.415Z,21.20
2023-08-12T05:51:42.938Z,21.20
2023-08-12T05:54:09.443Z,21.20
2023-08-12T05:56:35.952Z,21.20
2023-08-12T05:59:07.518Z,21.20
2023-08-12T06:01:34.217Z,21.20
2023-08-12T06:04:00.858Z,21.20
2023-08-12T06:06:27.422Z,21.20
2023-08-12T06:08:53.981Z,21.20
2023-08-12T06:11:20.521Z,21.20
2023-08-12T06:13:47.058Z,21.20
2023-08-12T06:16:13.611Z,21.20
2023-08-12T06:18:40.188Z,21.20
2023-08-12T06:21:06.716Z,21.20
2023-08-12T06:23:33.243Z,21.20
2023-08-12T06:25:59.745Z,21.20
2023-08-12T06:28:26.291Z,21.20
2023-08-12T06:30:52.819Z,21.20
2023-08-12T06:33:19.340Z,21.20
2023-08-12T06:35:48.316Z,21.20
2023-08-12T06:38:16.441Z,21.20
2023-08-12T06:40:42.994Z,21.20
2023-08-12T06:43:09.508Z,21.20
2023-08-12T06:45:36.095Z,21.20
2023-08-12T06:48:02.632Z,21.20
2023-08-12T06:50:29.256Z,21.20
2023-08-12T06:52:55.785Z,21.20
2023-08-12T06:55:22.334Z,21.20
2023-08-12T06:57:48.843Z,21.20
2023-08-12T07:00:15.385Z,21.20
2023-08-12T07:02:41.974Z,21.20
2023-08-12T07:05:08.520Z,21.20
2023-08-12T07:07:35.034Z,21.20
2023-08-12T07:10:01.590Z,21.20
2023-08-12T07:12:28.143Z,21.20
2023-08-12T07:14:54.662Z,21.20
2023-08-12T07:17:21.188Z,21.20
2023-08-12T07:19:47.709Z,21.20
2023-08-12T07:22:14.458Z,21.20
2023-08-12T07:24:41.170Z,21.20
2023-08-12T07:27:08.065Z,21.20
2023-08-12T07:29:34.700Z,21.20
2023-08-12T07:32:01.217Z,21.20
2023-08-12T07:34:31.095Z,21.20
2023-08-12T07:36:58.126Z,21.20
2023-08-12T07:39:24.647Z,21.20
2023-08-12T07:41:55.635Z,21.20
2023-08-12T07:44:22.142Z,21.20
2023-08-12T07:46:48.724Z,21.20
2023-08-12T07:49:15.271Z,21.20
2023-08-12T07:51:41.798Z,21.20
2023-08-12T07:54:08.345Z,21.20
2023-08-12T07:56:34.868Z,21.20
2023-08-12T07:59:01.407Z,21.20
2023-08-12T08:01:27.965Z,21.20
2023-08-12T08:03:54.471Z,21.20
2023-08-12T08:06:25.660Z,21.20
2023-08-12T08:08:52.188Z,21.20
2023-08-12T08:11:18.706Z,21.20
2023-08-12T08:13:45.228Z,21.20
2023-08-12T08:16:11.859Z,21.20
2023-08-12T08:18:38.474Z,21.20
2023-08-12T08:21:06.202Z,21.20
2023-08-12T08:23:32.860Z,21.20
2023-08-12T08:25:59.413Z,21.20
2023-08-12T08:28:25.973Z,21.20
2023-08-12T08:30:52.549Z,21.20
2023-08-12T08:33:19.098Z,21.30
2023-08-12T08:35:45.661Z,21.20
2023-08-12T08:38:12.255Z,21.20
2023-08-12T08:40:38.811Z,21.20
2023-08-12T08:43:05.354Z,21.20
2023-08-12T08:45:31.886Z,21.20
2023-08-12T08:47:58.474Z,21.20
2023-08-12T08:50:25.026Z,21.20
2023-08-12T08:52:51.563Z,21.20
2023-08-12T08:55:18.386Z,21.30
2023-08-12T08:57:47.648Z,21.30
2023-08-12T09:00:17.508Z,21.20
2023-08-12T09:02:44.843Z,21.30
2023-08-12T09:05:11.419Z,21.20
2023-08-12T09:07:38.004Z,21.30
2023-08-12T09:10:04.523Z,21.30
2023-08-12T09:12:31.135Z,21.20
2023-08-12T09:14:57.723Z,21.20
2023-08-12T09:17:24.279Z,21.20
2023-08-12T09:19:50.827Z,21.30
2023-08-12T09:22:17.360Z,21.20
2023-08-12T09:24:43.875Z,21.30
2023-08-12T09:27:10.435Z,21.30
2023-08-12T09:29:36.955Z,21.30
2023-08-12T09:32:03.547Z,21.30
2023-08-12T09:34:30.099Z,21.30
2023-08-12T09:36:56.627Z,21.20
2023-08-12T09:39:23.161Z,21.20
2023-08-12T09:41:49.698Z,21.30
2023-08-12T09:44:16.235Z,21.30
2023-08-12T09:46:42.751Z,21.30
2023-08-12T09:49:09.306Z,21.30
2023-08-12T09:51:35.844Z,21.30
2023-08-12T09:54:02.407Z,21.30
2023-08-12T09:56:28.955Z,21.30
2023-08-12T09:58:55.493Z,21.20
2023-08-12T10:01:22.040Z,21.30
2023-08-12T10:03:48.645Z,21.30
2023-08-12T10:06:16.721Z,21.30
2023-08-12T10:08:43.508Z,21.30
2023-08-12T10:11:13.435Z,21.20
2023-08-12T10:13:43.755Z,21.20
2023-08-12T10:16:10.388Z,21.30
2023-08-12T10:18:37.147Z,21.30
2023-08-12T10:21:03.653Z,21.30
2023-08-12T10:23:30.179Z,21.30
2023-08-12T10:25:56.694Z,21.30
2023-08-12T10:28:23.210Z,21.30
2023-08-12T10:30:49.783Z,21.30
2023-08-12T10:33:16.311Z,21.30
2023-08-12T10:35:42.848Z,21.30
2023-08-12T10:38:09.372Z,21.30
2023-08-12T10:40:35.912Z,21.30
2023-08-12T10:43:02.433Z,21.30
2023-08-12T10:45:28.950Z,21.30
2023-08-12T10:47:55.568Z,21.30
2023-08-12T10:50:22.199Z,21.30
2023-08-12T10:52:48.719Z,21.30
2023-08-12T10:55:15.275Z,21.30
2023-08-12T10:57:41.791Z,21.30
2023-08-12T11:00:08.325Z,21.30
2023-08-12T11:02:34.951Z,21.30
2023-08-12T11:05:01.588Z,21.30
2023-08-12T11:07:28.117Z,21.30
2023-08-12T11:09:54.714Z,21.30
2023-08-12T11:12:21.539Z,21.30
2023-08-12T11:14:48.081Z,21.30
2023-08-12T11:17:14.615Z,21.30
2023-08-12T11:19:41.190Z,21.30
2023-08-12T11:22:07.729Z,21.30
2023-08-12T11:24:34.262Z,21.30
2023-08-12T11:27:00.785Z,21.30
2023-08-12T11:29:27.318Z,21.30
2023-08-12T11:31:53.839Z,21.30
2023-08-12T11:34:20.366Z,21.30
2023-08-12T11:36:46.897Z,21.30
2023-08-12T11:39:13.460Z,21.30
2023-08-12T11:41:39.959Z,21.30
2023-08-12T11:44:06.474Z,21.40
2023-08-12T11:46:33.098Z,21.30
2023-08-12T11:49:01.845Z,21.30
2023-08-12T11:51:28.400Z,21.30
2023-08-12T11:53:54.933Z,21.30
2023-08-12T11:56:21.477Z,21.40
2023-08-12T11:58:53.359Z,21.30
2023-08-12T12:01:20.451Z,21.40
2023-08-12T12:03:47.023Z,21.40
2023-08-12T12:06:13.602Z,21.40
2023-08-12T12:08:40.163Z,21.30
2023-08-12T12:11:06.697Z,21.30
2023-08-12T12:13:33.219Z,21.40
2023-08-12T12:15:59.737Z,21.40
2023-08-12T12:18:26.259Z,21.40
2023-08-12T12:20:55.886Z,21.40
2023-08-12T12:23:22.405Z,21.40
2023-08-12T12:25:48.916Z,21.40
2023-08-12T12:28:15.542Z,21.40
2023-08-12T12:30:42.136Z,21.40
2023-08-12T12:33:08.663Z,21.40
2023-08-12T12:35:44.044Z,21.40
2023-08-12T12:38:18.335Z,21.40
2023-08-12T12:40:44.871Z,21.40
2023-08-12T12:43:11.395Z,21.40
2023-08-12T12:45:37.930Z,21.40
2023-08-12T12:48:04.476Z,21.40
2023-08-12T12:50:30.995Z,21.40
2023-08-12T12:52:57.554Z,21.40
2023-08-12T12:55:24.066Z,21.40
2023-08-12T12:57:50.583Z,21.40
2023-08-12T13:00:17.099Z,21.40
2023-08-12T13:02:43.673Z,21.40
2023-08-12T13:05:10.247Z,21.40
2023-08-12T13:07:36.776Z,21.40
2023-08-12T13:10:03.307Z,21.40
2023-08-12T13:12:29.835Z,21.40
2023-08-12T13:14:56.371Z,21.40
2023-08-12T13:17:25.939Z,21.40
2023-08-12T13:19:52.494Z,21.40
2023-08-12T13:22:19.022Z,21.40
2023-08-12T13:24:45.550Z,21.40
2023-08-12T13:27:12.497Z,21.40
2023-08-12T13:29:39.029Z,21.40
2023-08-12T13:32:05.569Z,21.40
2023-08-12T13:34:32.102Z,21.40
2023-08-12T13:36:58.647Z,21.40
2023-08-12T13:39:25.174Z,21.40
2023-08-12T13:41:51.711Z,21.40
2023-08-12T13:44:18.242Z,21.40
2023-08-12T13:46:44.769Z,21.40
2023-08-12T13:49:11.278Z,21.40
2023-08-12T13:51:37.798Z,21.40
2023-08-12T13:54:04.287Z,21.40
2023-08-12T13:56:32.450Z,21.40
2023-08-12T13:58:59.156Z,21.40
2023-08-12T14:01:25.736Z,21.40
2023-08-12T14:03:52.295Z,21.40
2023-08-12T14:06:20.005Z,21.40
2023-08-12T14:08:46.583Z,21.40
2023-08-12T14:11:13.112Z,21.40
2023-08-12T14:13:39.635Z,21.40
2023-08-12T14:16:06.231Z,21.40
2023-08-12T14:18:32.746Z,21.40
2023-08-12T14:20:59.257Z,21.40
2023-08-12T14:23:25.797Z,21.40
2023-08-12T14:25:52.324Z,21.40
2023-08-12T14:28:18.867Z,21.40
2023-08-12T14:30:45.441Z,21.40
2023-08-12T14:33:12.018Z,21.40
2023-08-12T14:35:38.564Z,21.40
2023-08-12T14:38:05.154Z,21.40
2023-08-12T14:40:31.721Z,21.50
2023-08-12T14:42:58.265Z,21.40
2023-08-12T14:45:25.949Z,21.40
2023-08-12T14:47:52.537Z,21.40
2023-08-12T14:50:19.096Z,21.40
2023-08-12T14:52:45.649Z,21.40
2023-08-12T14:55:12.160Z,21.40
2023-08-12T14:57:38.679Z,21.50
2023-08-12T15:00:05.193Z,21.50
2023-08-12T15:02:33.295Z,21.50
2023-08-12T15:05:00.020Z,21.50
2023-08-12T15:07:26.571Z,21.40
2023-08-12T15:09:53.149Z,21.40
2023-08-12T15:12:19.663Z,21.50
2023-08-12T15:14:46.198Z,21.40
2023-08-12T15:17:12.982Z,21.40
2023-08-12T15:19:39.748Z,21.40
2023-08-12T15:22:06.288Z,21.40
2023-08-12T15:24:32.827Z,21.50
2023-08-12T15:26:59.348Z,21.40
2023-08-12T15:29:25.897Z,21.40
2023-08-12T15:31:52.420Z,21.50
2023-08-12T15:34:18.947Z,21.40
2023-08-12T15:36:45.462Z,21.50
2023-08-12T15:39:12.011Z,21.50
2023-08-12T15:41:38.529Z,21.50
2023-08-12T15:44:05.052Z,21.50
2023-08-12T15:46:31.584Z,21.50
2023-08-12T15:48:58.177Z,21.50
2023-08-12T15:51:24.702Z,21.50
2023-08-12T15:53:51.209Z,21.50
2023-08-12T15:56:17.729Z,21.50
2023-08-12T15:58:44.253Z,21.50
2023-08-12T16:01:10.795Z,21.50
2023-08-12T16:03:38.186Z,21.60
2023-08-12T16:06:04.756Z,21.60
2023-08-12T16:08:31.323Z,21.60
2023-08-12T16:10:58.063Z,21.50
2023-08-12T16:13:24.630Z,21.60
2023-08-12T16:15:51.204Z,21.60
2023-08-12T16:18:17.852Z,21.60
2023-08-12T16:20:44.446Z,21.60
2023-08-12T16:23:10.948Z,21.60
2023-08-12T16:25:37.455Z,21.60
2023-08-12T16:28:04.009Z,21.60
2023-08-12T16:30:30.521Z,21.70
2023-08-12T16:32:57.090Z,21.70
2023-08-12T16:35:23.653Z,21.80
2023-08-12T16:37:50.205Z,21.80
2023-08-12T16:40:16.742Z,22.00
2023-08-12T16:42:43.265Z,22.20
2023-08-12T16:45:09.810Z,22.30
2023-08-12T16:47:36.344Z,22.20
2023-08-12T16:50:02.916Z,22.10
2023-08-12T16:52:29.436Z,22.00
2023-08-12T16:54:55.981Z,21.90
2023-08-12T16:57:22.541Z,21.90
2023-08-12T16:59:49.080Z,21.90
2023-08-12T17:02:15.789Z,21.80
2023-08-12T17:04:42.555Z,21.90
2023-08-12T17:07:09.079Z,21.90
2023-08-12T17:09:35.682Z,21.80
2023-08-12T17:12:02.245Z,21.80
2023-08-12T17:14:28.839Z,21.80
2023-08-12T17:16:55.416Z,21.80
2023-08-12T17:19:26.123Z,21.80
2023-08-12T17:21:52.637Z,21.90
2023-08-12T17:24:19.239Z,21.80
2023-08-12T17:26:45.832Z,21.80
2023-08-12T17:29:12.354Z,21.80
2023-08-12T17:31:38.898Z,21.80
2023-08-12T17:34:05.430Z,21.80
2023-08-12T17:36:31.993Z,21.80
2023-08-12T17:38:58.493Z,21.70
2023-08-12T17:41:25.028Z,21.80
2023-08-12T17:43:51.527Z,21.80
2023-08-12T17:46:18.089Z,21.70
2023-08-12T17:48:44.622Z,21.80
2023-08-12T17:51:11.158Z,21.70
2023-08-12T17:53:37.679Z,21.80
2023-08-12T17:56:08.154Z,21.80
2023-08-12T17:58:36.324Z,21.70
2023-08-12T18:01:04.418Z,21.80
2023-08-12T18:03:31.022Z,21.70
2023-08-12T18:05:57.595Z,21.70
2023-08-12T18:08:24.105Z,21.80
2023-08-12T18:10:50.635Z,21.70
2023-08-12T18:13:17.147Z,21.70
2023-08-12T18:15:43.726Z,21.70
2023-08-12T18:18:10.267Z,21.70
2023-08-12T18:20:36.823Z,21.70
2023-08-12T18:23:03.328Z,21.70
2023-08-12T18:25:29.859Z,21.70
2023-08-12T18:27:56.402Z,21.70
2023-08-12T18:30:22.987Z,21.60
2023-08-12T18:32:49.538Z,21.60
2023-08-12T18:35:16.059Z,21.70
2023-08-12T18:37:42.585Z,21.60
2023-08-12T18:40:09.145Z,21.60
2023-08-12T18:42:35.719Z,21.60
2023-08-12T18:45:02.257Z,21.60
2023-08-12T18:47:28.816Z,21.60
2023-08-12T18:49:55.373Z,21.60
2023-08-12T18:52:21.921Z,21.60
2023-08-12T18:54:48.440Z,21.60
2023-08-12T18:57:14.993Z,21.60
2023-08-12T18:59:41.544Z,21.60
2023-08-12T19:02:08.109Z,21.60
2023-08-12T19:04:34.672Z,21.60
2023-08-12T19:07:01.220Z,21.60
2023-08-12T19:09:27.760Z,21.60
2023-08-12T19:11:54.301Z,21.60
2023-08-12T19:14:20.815Z,21.60
2023-08-12T19:16:47.334Z,21.60
2023-08-12T19:19:13.873Z,21.60
2023-08-12T19:21:44.230Z,21.50
2023-08-12T19:24:10.788Z,21.60
2023-08-12T19:26:37.322Z,21.50
2023-08-12T19:29:03.868Z,21.50
2023-08-12T19:31:30.424Z,21.50
2023-08-12T19:33:56.972Z,21.50
2023-08-12T19:36:23.500Z,21.60
2023-08-12T19:38:50.051Z,21.50
2023-08-12T19:41:16.592Z,21.50
2023-08-12T19:43:43.114Z,21.50
2023-08-12T19:46:09.648Z,21.50
2023-08-12T19:48:36.170Z,21.50
2023-08-12T19:51:02.721Z,21.50
2023-08-12T19:53:29.242Z,21.50
2023-08-12T19:55:55.784Z,21.50
2023-08-12T19:58:22.330Z,21.50
2023-08-12T20:00:48.948Z,21.50
2023-08-12T20:03:15.531Z,21.50
2023-08-12T20:05:42.040Z,21.50
2023-08-12T20:08:08.588Z,21.50
2023-08-12T20:10:35.108Z,21.50
2023-08-12T20:13:01.645Z,21.50
2023-08-12T20:15:28.166Z,21.50
2023-08-12T20:17:54.833Z,21.50
2023-08-12T20:20:21.388Z,21.50
2023-08-12T20:23:03.240Z,21.40
2023-08-12T20:25:30.353Z,21.50
2023-08-12T20:27:56.879Z,21.40
2023-08-12T20:30:23.399Z,21.40
2023-08-12T20:32:49.978Z,21.40
2023-08-12T20:35:16.519Z,21.40
2023-08-12T20:37:43.049Z,21.40
2023-08-12T20:40:09.581Z,21.40
2023-08-12T20:42:36.134Z,21.40
2023-08-12T20:45:02.659Z,21.40
2023-08-12T20:47:29.236Z,21.50
2023-08-12T20:49:56.278Z,21.50
2023-08-12T20:52:22.828Z,21.40
2023-08-12T20:54:49.335Z,21.40
2023-08-12T20:57:16.057Z,21.40
2023-08-12T20:59:42.812Z,21.40
2023-08-12T21:02:09.345Z,21.40
2023-08-12T21:04:35.910Z,21.40
2023-08-12T21:07:02.424Z,21.40
2023-08-12T21:09:28.958Z,21.40
2023-08-12T21:11:55.487Z,21.40
2023-08-12T21:14:22.020Z,21.40
2023-08-12T21:16:48.536Z,21.40
2023-08-12T21:19:15.106Z,21.30
2023-08-12T21:21:41.646Z,21.40
2023-08-12T21:24:08.224Z,21.40
2023-08-12T21:26:34.784Z,21.40
2023-08-12T21:29:01.322Z,21.40
2023-08-12T21:31:27.852Z,21.40
2023-08-12T21:33:54.404Z,21.40
2023-08-12T21:36:20.931Z,21.40
2023-08-12T21:38:47.466Z,21.30
2023-08-12T21:41:13.985Z,21.40
2023-08-12T21:43:44.363Z,21.40
2023-08-12T21:46:10.902Z,21.40
2023-08-12T21:48:37.483Z,21.30
2023-08-12T21:51:03.977Z,21.30
2023-08-12T21:53:30.504Z,21.30
2023-08-12T21:55:57.045Z,21.30
2023-08-12T21:58:23.574Z,21.30
2023-08-12T22:00:50.095Z,21.30
2023-08-12T22:03:16.628Z,21.30
2023-08-12T22:05:44.333Z,21.30
2023-08-12T22:08:10.859Z,21.30
2023-08-12T22:10:37.369Z,21.30
2023-08-12T22:13:03.890Z,21.30
2023-08-12T22:15:32.904Z,21.30
2023-08-12T22:18:00.458Z,21.30
2023-08-12T22:20:27.029Z,21.30
2023-08-12T22:22:53.546Z,21.30
2023-08-12T22:25:20.102Z,21.30
2023-08-12T22:27:46.625Z,21.30
2023-08-12T22:30:13.164Z,21.30
2023-08-12T22:32:39.693Z,21.30
2023-08-12T22:35:08.821Z,21.30
2023-08-12T22:37:35.984Z,21.30
2023-08-12T22:40:02.529Z,21.30
2023-08-12T22:42:29.057Z,21.30
2023-08-12T22:44:55.586Z,21.30
2023-08-12T22:47:22.143Z,21.30
2023-08-12T22:49:50.414Z,21.30
2023-08-12T22:52:16.957Z,21.30
2023-08-12T22:54:43.478Z,21.30
2023-08-12T22:57:10.003Z,21.30
2023-08-12T22:59:38.430Z,21.30
2023-08-12T23:02:04.955Z,21.30
2023-08-12T23:04:31.494Z,21.30
2023-08-12T23:06:58.003Z,21.30
2023-08-12T23:09:24.550Z,21.20
2023-08-12T23:11:51.091Z,21.30
2023-08-12T23:14:20.456Z,21.30
2023-08-12T23:16:47.032Z,21.30
2023-08-12T23:19:13.576Z,21.30
2023-08-12T23:21:40.097Z,21.30
2023-08-12T23:24:06.639Z,21.30
2023-08-12T23:26:33.171Z,21.30
2023-08-12T23:28:59.707Z,21.30
2023-08-12T23:31:26.290Z,21.30
2023-08-12T23:33:52.862Z,21.30
2023-08-12T23:36:19.500Z,21.30
2023-08-12T23:38:46.027Z,21.30
2023-08-12T23:41:12.639Z,21.20
2023-08-12T23:43:39.162Z,21.20
2023-08-12T23:46:05.747Z,21.20
2023-08-12T23:48:32.275Z,21.30
2023-08-12T23:50:58.814Z,21.20
2023-08-12T23:53:25.314Z,21.20
2023-08-12T23:55:51.822Z,21.20
2023-08-12T23:58:18.391Z,21.20
